Time;durP1;ratioP1;P1;durP2;ratioP2;P2;SDS_P1;SDS_P2;PMS_P1;PMS_P2;Temp;Humidity;BMP_temperature;BMP_pressure;BME280_temperature;BME280_humidity;BME280_pressure;Samples;Min_cycle;Max_cycle;Signal;HPM_P1;HPM_P2
2021/03/16 00:00:43;;;;;;;1.60;0.25;;;20.60;38.50;;;;;;5042300;28;20053;-85
2021/03/16 00:03:08;;;;;;;0.68;0.20;;;20.60;38.40;;;;;;5042223;28;20049;-82
2021/03/16 00:05:34;;;;;;;1.23;0.22;;;20.60;38.50;;;;;;5056305;28;20048;-84
2021/03/16 00:08:01;;;;;;;1.10;0.28;;;20.60;38.50;;;;;;5044839;28;20037;-83
2021/03/16 00:10:27;;;;;;;2.10;0.20;;;20.60;38.50;;;;;;5044002;28;20111;-81
2021/03/16 00:12:52;;;;;;;2.65;0.20;;;20.60;38.50;;;;;;5042037;28;20034;-83
2021/03/16 00:15:18;;;;;;;2.88;0.20;;;20.50;38.40;;;;;;5042713;28;20017;-83
2021/03/16 00:17:43;;;;;;;1.42;0.10;;;20.50;38.50;;;;;;5045634;28;20481;-83
2021/03/16 00:20:10;;;;;;;0.82;0.10;;;20.50;38.50;;;;;;5042706;28;20044;-83
2021/03/16 00:22:35;;;;;;;1.88;0.20;;;20.50;38.50;;;;;;5043072;28;20044;-83
2021/03/16 00:25:01;;;;;;;1.23;0.10;;;20.50;38.60;;;;;;5044701;28;20488;-84
2021/03/16 00:27:27;;;;;;;2.10;0.20;;;20.50;38.50;;;;;;5048086;28;20334;-81
2021/03/16 00:29:52;;;;;;;2.97;0.35;;;20.50;38.50;;;;;;5029330;28;20029;-83
2021/03/16 00:32:18;;;;;;;1.02;0.20;;;20.50;38.50;;;;;;5045388;28;20032;-84
2021/03/16 00:34:44;;;;;;;1.98;0.20;;;20.40;38.50;;;;;;5044781;28;20061;-83
2021/03/16 00:37:09;;;;;;;3.13;0.45;;;20.40;38.50;;;;;;5047387;28;20037;-83
2021/03/16 00:39:35;;;;;;;4.15;0.20;;;20.40;38.50;;;;;;5043997;28;20410;-83
2021/03/16 00:42:01;;;;;;;2.05;0.20;;;20.40;38.50;;;;;;5028515;28;20167;-84
2021/03/16 00:44:26;;;;;;;0.85;0.10;;;20.40;38.50;;;;;;5051965;28;20072;-81
2021/03/16 00:46:52;;;;;;;0.75;0.13;;;20.40;38.50;;;;;;5050150;28;20064;-83
2021/03/16 00:49:17;;;;;;;1.52;0.30;;;20.40;38.50;;;;;;5044847;28;20116;-83
2021/03/16 00:51:43;;;;;;;2.15;0.22;;;20.40;38.60;;;;;;5044785;28;20037;-83
2021/03/16 00:54:09;;;;;;;1.88;0.10;;;20.40;38.60;;;;;;5052374;28;20586;-85
2021/03/16 00:56:35;;;;;;;1.60;0.20;;;20.40;38.70;;;;;;5053442;28;21031;-84
2021/03/16 00:59:00;;;;;;;2.92;0.50;;;20.40;38.70;;;;;;5051157;28;20029;-84
2021/03/16 01:01:26;;;;;;;1.00;0.15;;;20.30;38.60;;;;;;5053558;28;20037;-85
2021/03/16 01:03:52;;;;;;;1.27;0.28;;;20.30;38.50;;;;;;5051610;28;20115;-84
2021/03/16 01:06:17;;;;;;;2.55;0.17;;;20.30;38.50;;;;;;5050425;28;20044;-84
2021/03/16 01:08:43;;;;;;;2.55;0.50;;;20.30;38.50;;;;;;5051200;28;20060;-84
2021/03/16 01:11:08;;;;;;;1.90;0.30;;;20.30;38.50;;;;;;5032241;28;20116;-84
2021/03/16 01:13:34;;;;;;;1.77;0.28;;;20.30;38.50;;;;;;5049748;28;20079;-84
2021/03/16 01:16:00;;;;;;;2.90;0.30;;;20.30;38.50;;;;;;5046501;28;20037;-85
2021/03/16 01:18:26;;;;;;;0.77;0.10;;;20.30;38.50;;;;;;5048528;28;20136;-84
2021/03/16 01:20:52;;;;;;;4.80;0.47;;;20.30;38.60;;;;;;5048011;28;20025;-84
2021/03/16 01:23:17;;;;;;;2.13;0.20;;;20.20;38.50;;;;;;5049024;28;20035;-84
2021/03/16 01:25:43;;;;;;;2.67;0.28;;;20.20;38.50;;;;;;5043320;28;20477;-83
2021/03/16 01:28:08;;;;;;;1.73;0.20;;;20.20;38.50;;;;;;5047595;28;20591;-84
2021/03/16 01:30:34;;;;;;;2.85;0.20;;;20.20;38.50;;;;;;5024931;28;20089;-85
2021/03/16 01:33:00;;;;;;;0.52;0.13;;;20.20;38.50;;;;;;5026973;28;20029;-85
2021/03/16 01:35:25;;;;;;;1.17;0.15;;;20.20;39.00;;;;;;5043297;28;20033;-84
2021/03/16 01:37:55;;;;;;;2.60;0.30;;;20.20;38.50;;;;;;5045447;28;20463;-83
2021/03/16 01:40:28;;;;;;;1.33;0.10;;;20.10;38.40;;;;;;5043938;28;20036;-85
2021/03/16 01:43:13;;;;;;;1.75;0.10;;;20.20;38.40;;;;;;5040683;28;20040;-84
2021/03/16 01:45:41;;;;;;;2.33;0.30;;;20.20;38.50;;;;;;5044929;28;20057;-84
2021/03/16 01:48:07;;;;;;;3.35;0.20;;;20.10;38.30;;;;;;5048763;28;20496;-84
2021/03/16 01:50:34;;;;;;;7.45;0.20;;;20.10;38.40;;;;;;5049889;28;20049;-85
2021/03/16 01:53:00;;;;;;;2.78;0.30;;;20.20;38.40;;;;;;5047488;28;20045;-84
2021/03/16 01:55:28;;;;;;;2.45;0.40;;;20.10;38.30;;;;;;5073786;28;20038;-85
2021/03/16 01:57:55;;;;;;;2.17;0.10;;;20.20;38.40;;;;;;5049864;28;20451;-84
2021/03/16 02:00:21;;;;;;;2.70;0.20;;;20.10;38.40;;;;;;5048294;28;20056;-85
2021/03/16 02:02:47;;;;;;;1.80;0.30;;;20.10;38.30;;;;;;5038683;28;20044;-83
2021/03/16 02:05:13;;;;;;;2.45;0.30;;;20.10;38.40;;;;;;5053297;28;20029;-83
2021/03/16 02:07:44;;;;;;;2.85;0.30;;;20.10;38.40;;;;;;5056262;28;20025;-82
2021/03/16 02:10:16;;;;;;;0.90;0.10;;;20.10;38.40;;;;;;5060573;28;20052;-83
2021/03/16 02:13:06;;;;;;;2.58;0.10;;;20.10;38.30;;;;;;5051807;28;20025;-84
2021/03/16 02:15:40;;;;;;;3.83;0.43;;;20.10;38.40;;;;;;5049739;28;20029;-84
2021/03/16 02:18:14;;;;;;;2.78;0.20;;;20.00;38.40;;;;;;5048770;28;20107;-83
2021/03/16 02:20:51;;;;;;;1.55;0.20;;;20.00;38.30;;;;;;5025824;28;20051;-83
2021/03/16 02:23:25;;;;;;;2.20;0.20;;;20.00;38.30;;;;;;5044482;28;20044;-83
2021/03/16 02:26:01;;;;;;;1.42;0.10;;;20.00;38.20;;;;;;5044861;28;20500;-83
2021/03/16 02:28:51;;;;;;;1.10;0.10;;;20.00;38.20;;;;;;5044066;28;20033;-84
2021/03/16 02:31:18;;;;;;;1.75;0.20;;;20.00;38.20;;;;;;5045118;28;20048;-85
2021/03/16 02:33:45;;;;;;;1.25;0.22;;;20.00;38.20;;;;;;5043907;28;20231;-84
2021/03/16 02:36:13;;;;;;;1.67;0.10;;;20.00;38.20;;;;;;5044353;28;20029;-84
2021/03/16 02:38:43;;;;;;;0.55;0.10;;;20.00;38.20;;;;;;5025587;28;20516;-82
2021/03/16 02:41:11;;;;;;;2.03;0.10;;;20.00;38.30;;;;;;5041204;28;20115;-82
2021/03/16 02:43:37;;;;;;;2.50;0.25;;;20.00;38.20;;;;;;5041506;28;20033;-82
2021/03/16 02:46:05;;;;;;;2.38;0.10;;;19.90;38.20;;;;;;5039991;28;20377;-83
2021/03/16 02:48:31;;;;;;;4.10;0.10;;;19.90;38.20;;;;;;5039141;28;20056;-83
2021/03/16 02:50:58;;;;;;;1.50;0.20;;;19.90;38.10;;;;;;5040323;28;20060;-82
2021/03/16 02:53:24;;;;;;;1.30;0.10;;;19.90;38.20;;;;;;5041709;28;20420;-83
2021/03/16 02:55:51;;;;;;;3.15;0.13;;;19.90;38.20;;;;;;5039568;28;20051;-83
2021/03/16 02:58:19;;;;;;;1.05;0.10;;;19.90;38.30;;;;;;5042258;28;20090;-83
2021/03/16 03:00:46;;;;;;;0.88;0.10;;;19.90;38.30;;;;;;5056879;28;20033;-82
2021/03/16 03:03:12;;;;;;;1.30;0.17;;;19.90;38.20;;;;;;5038789;28;20040;-82
2021/03/16 03:05:39;;;;;;;2.05;0.20;;;19.90;38.30;;;;;;5042720;28;20076;-83
2021/03/16 03:08:08;;;;;;;2.97;0.10;;;19.90;38.20;;;;;;5039777;28;20040;-83
2021/03/16 03:10:34;;;;;;;1.40;0.20;;;19.90;38.20;;;;;;5042082;28;20033;-83
2021/03/16 03:12:59;;;;;;;0.82;0.10;;;19.90;38.20;;;;;;5044275;28;20061;-83
2021/03/16 03:15:25;;;;;;;1.83;0.20;;;19.90;38.30;;;;;;5042311;28;20464;-83
2021/03/16 03:17:50;;;;;;;2.25;0.25;;;19.90;38.20;;;;;;5041291;28;20029;-83
2021/03/16 03:20:16;;;;;;;2.67;0.10;;;19.80;38.20;;;;;;5043391;28;20457;-82
2021/03/16 03:22:44;;;;;;;1.30;0.10;;;19.80;38.20;;;;;;5039572;28;20098;-83
2021/03/16 03:25:40;;;;;;;1.50;0.20;;;19.80;38.10;;;;;;5041483;28;20504;-83
2021/03/16 03:28:20;;;;;;;2.95;0.20;;;19.80;38.20;;;;;;5034512;28;20040;-82
2021/03/16 03:30:48;;;;;;;1.55;0.10;;;19.80;38.20;;;;;;5042254;28;20044;-83
2021/03/16 03:33:14;;;;;;;2.88;0.20;;;19.80;38.20;;;;;;5038940;28;20029;-83
2021/03/16 03:35:40;;;;;;;1.77;0.20;;;19.80;38.20;;;;;;5041025;28;20029;-83
2021/03/16 03:38:08;;;;;;;1.60;0.10;;;19.80;38.20;;;;;;5045786;28;20038;-82
2021/03/16 03:40:34;;;;;;;0.85;0.10;;;19.80;38.10;;;;;;5044700;28;20037;-83
2021/03/16 03:43:02;;;;;;;0.95;0.10;;;19.80;38.10;;;;;;5046349;28;20053;-83
2021/03/16 03:45:30;;;;;;;2.25;0.17;;;19.80;38.10;;;;;;5045568;28;20037;-83
2021/03/16 03:47:59;;;;;;;0.85;0.10;;;19.80;38.20;;;;;;5046461;28;20037;-83
2021/03/16 03:50:26;;;;;;;1.45;0.10;;;19.80;38.20;;;;;;5043948;28;20089;-84
2021/03/16 03:52:53;;;;;;;1.10;0.10;;;19.70;37.90;;;;;;5049409;28;20599;-83
2021/03/16 03:55:21;;;;;;;0.73;0.10;;;19.70;38.10;;;;;;5045498;28;20089;-84
2021/03/16 03:57:48;;;;;;;2.50;0.15;;;19.70;38.10;;;;;;5048418;28;20037;-83
2021/03/16 04:00:15;;;;;;;2.15;0.15;;;19.70;38.10;;;;;;5048820;28;20048;-84
2021/03/16 04:02:41;;;;;;;1.38;0.10;;;19.70;38.10;;;;;;5045443;28;20033;-84
2021/03/16 04:05:11;;;;;;;0.77;0.10;;;19.70;38.10;;;;;;5046247;28;20072;-82
2021/03/16 04:07:37;;;;;;;0.73;0.20;;;19.70;38.10;;;;;;5045188;28;20056;-84
2021/03/16 04:10:06;;;;;;;1.95;0.10;;;19.70;38.10;;;;;;5047212;28;20118;-85
2021/03/16 04:12:33;;;;;;;1.85;0.10;;;19.70;38.10;;;;;;5042142;28;20041;-84
2021/03/16 04:15:00;;;;;;;2.17;0.10;;;19.70;38.10;;;;;;5045663;28;20125;-85
2021/03/16 04:17:26;;;;;;;1.48;0.25;;;19.70;38.10;;;;;;5045867;28;20025;-84
2021/03/16 04:19:54;;;;;;;1.63;0.20;;;19.70;38.10;;;;;;5046739;28;20060;-84
2021/03/16 04:22:20;;;;;;;1.10;0.17;;;19.70;38.10;;;;;;5068772;28;20087;-84
2021/03/16 04:24:46;;;;;;;2.78;0.20;;;19.70;38.10;;;;;;5047546;28;20041;-84
2021/03/16 04:27:12;;;;;;;3.60;0.20;;;19.70;38.10;;;;;;5043422;28;20472;-82
2021/03/16 04:29:37;;;;;;;1.98;0.28;;;19.60;38.10;;;;;;5047103;28;20065;-84
2021/03/16 04:32:03;;;;;;;1.02;0.10;;;19.60;38.10;;;;;;5044624;28;20045;-85
2021/03/16 04:34:29;;;;;;;2.15;0.20;;;19.60;38.10;;;;;;5045946;28;20033;-85
2021/03/16 04:36:54;;;;;;;1.30;0.15;;;19.60;38.10;;;;;;5045891;28;20037;-83
2021/03/16 04:39:20;;;;;;;0.38;0.00;;;19.60;38.10;;;;;;5043111;28;20091;-85
2021/03/16 04:41:45;;;;;;;2.47;0.20;;;19.60;38.00;;;;;;5047431;28;20041;-84
2021/03/16 04:44:11;;;;;;;1.85;0.20;;;19.60;38.10;;;;;;5045464;28;20029;-82
2021/03/16 04:46:37;;;;;;;1.52;0.10;;;19.60;38.10;;;;;;5045598;28;20032;-84
2021/03/16 04:49:02;;;;;;;1.80;0.10;;;19.60;38.60;;;;;;5048822;28;20039;-83
2021/03/16 04:51:29;;;;;;;0.70;0.22;;;19.60;38.20;;;;;;5043718;28;20755;-82
2021/03/16 04:53:55;;;;;;;2.15;0.10;;;19.60;38.20;;;;;;5045237;28;20033;-83
2021/03/16 04:56:21;;;;;;;0.85;0.10;;;19.60;38.10;;;;;;5043715;28;20085;-83
2021/03/16 04:58:46;;;;;;;1.70;0.10;;;19.60;38.20;;;;;;5046963;28;20486;-83
2021/03/16 05:01:12;;;;;;;1.45;0.10;;;19.60;38.10;;;;;;5046811;28;20025;-82
2021/03/16 05:03:38;;;;;;;2.65;0.20;;;19.60;38.20;;;;;;5045484;28;20037;-83
2021/03/16 05:06:03;;;;;;;0.95;0.10;;;19.60;38.20;;;;;;5044828;28;20087;-82
2021/03/16 05:08:29;;;;;;;0.93;0.10;;;19.50;38.20;;;;;;5043808;28;20034;-83
2021/03/16 05:10:55;;;;;;;2.53;0.10;;;19.50;38.20;;;;;;5042311;28;20147;-82
2021/03/16 05:13:20;;;;;;;0.52;0.10;;;19.50;38.10;;;;;;5047401;28;20409;-83
2021/03/16 05:15:46;;;;;;;0.60;0.10;;;19.60;38.20;;;;;;5028297;28;20420;-84
2021/03/16 05:18:12;;;;;;;3.47;0.20;;;19.50;38.10;;;;;;5027448;28;20100;-83
2021/03/16 05:20:38;;;;;;;1.38;0.20;;;19.50;38.10;;;;;;5047577;28;20056;-83
2021/03/16 05:23:04;;;;;;;1.50;0.10;;;19.50;38.00;;;;;;5043744;28;20061;-82
2021/03/16 05:25:30;;;;;;;1.90;0.20;;;19.50;38.00;;;;;;5048614;28;20396;-81
2021/03/16 05:27:56;;;;;;;0.77;0.22;;;19.50;38.00;;;;;;5047956;28;20396;-84
2021/03/16 05:30:22;;;;;;;2.33;0.25;;;19.50;38.00;;;;;;5047927;28;20049;-82
2021/03/16 05:32:54;;;;;;;1.35;0.20;;;19.60;38.00;;;;;;5052671;28;20089;-82
2021/03/16 05:35:20;;;;;;;0.70;0.10;;;19.50;37.90;;;;;;5049839;28;20033;-82
2021/03/16 05:37:45;;;;;;;2.00;0.20;;;19.50;37.90;;;;;;5051099;28;20026;-84
2021/03/16 05:40:11;;;;;;;1.73;0.30;;;19.50;37.90;;;;;;5050594;28;20025;-84
2021/03/16 05:42:38;;;;;;;1.25;0.10;;;19.50;37.90;;;;;;5051916;28;20032;-83
2021/03/16 05:45:05;;;;;;;1.52;0.20;;;19.50;37.90;;;;;;5050315;28;20497;-83
2021/03/16 05:47:31;;;;;;;0.82;0.10;;;19.50;37.90;;;;;;5048617;28;20029;-84
2021/03/16 05:49:58;;;;;;;1.38;0.17;;;19.50;37.80;;;;;;5049171;28;20033;-83
2021/03/16 05:52:24;;;;;;;1.27;0.13;;;19.50;37.80;;;;;;5049477;28;20038;-82
2021/03/16 05:54:54;;;;;;;0.32;0.10;;;19.50;37.80;;;;;;5049296;28;20028;-83
2021/03/16 05:57:20;;;;;;;2.70;0.10;;;19.50;37.80;;;;;;5064319;28;20056;-81
2021/03/16 05:59:47;;;;;;;1.48;0.10;;;19.40;37.80;;;;;;5034663;28;20033;-84
2021/03/16 06:02:14;;;;;;;0.52;0.10;;;19.40;37.70;;;;;;5045500;28;20195;-84
2021/03/16 06:04:44;;;;;;;0.80;0.10;;;19.40;37.80;;;;;;5053071;28;20033;-82
2021/03/16 06:07:16;;;;;;;0.70;0.10;;;19.40;37.70;;;;;;5047632;28;20113;-84
2021/03/16 06:09:43;;;;;;;0.82;0.10;;;19.40;37.70;;;;;;5047872;28;20076;-84
2021/03/16 06:12:09;;;;;;;1.27;0.20;;;19.40;37.70;;;;;;5048967;28;20044;-83
2021/03/16 06:14:36;;;;;;;2.03;0.10;;;19.40;37.80;;;;;;5049627;28;20032;-83
2021/03/16 06:17:03;;;;;;;1.48;0.03;;;19.40;37.80;;;;;;5048479;28;20021;-84
2021/03/16 06:19:30;;;;;;;3.13;0.20;;;19.40;38.30;;;;;;5046913;28;20025;-84
2021/03/16 06:22:03;;;;;;;0.65;0.10;;;19.40;37.70;;;;;;5047699;28;20029;-84
2021/03/16 06:24:29;;;;;;;1.13;0.10;;;19.40;37.70;;;;;;5030280;28;20519;-84
2021/03/16 06:26:55;;;;;;;1.30;0.10;;;19.40;37.80;;;;;;5045987;28;20017;-84
2021/03/16 06:29:22;;;;;;;1.50;0.38;;;19.40;37.70;;;;;;5045079;28;20060;-84
2021/03/16 06:31:48;;;;;;;0.38;0.08;;;19.40;37.90;;;;;;5069217;28;20037;-83
2021/03/16 06:34:25;;;;;;;0.70;0.10;;;19.40;38.00;;;;;;5045037;28;20033;-84
2021/03/16 06:36:58;;;;;;;2.47;0.10;;;19.50;37.90;;;;;;5046937;28;20075;-84
2021/03/16 06:39:25;;;;;;;0.52;0.10;;;19.70;37.70;;;;;;5050250;28;20249;-85
2021/03/16 06:41:51;;;;;;;1.13;0.10;;;19.80;37.60;;;;;;5030539;28;20040;-84
2021/03/16 06:44:18;;;;;;;0.98;0.10;;;19.90;37.40;;;;;;5031243;28;20029;-85
2021/03/16 06:46:52;;;;;;;0.95;0.13;;;20.00;37.40;;;;;;5046740;28;20036;-83
2021/03/16 06:49:19;;;;;;;2.40;0.10;;;20.10;37.40;;;;;;5043682;28;20025;-83
2021/03/16 06:51:45;;;;;;;0.98;0.20;;;20.20;37.30;;;;;;5046333;28;20501;-83
2021/03/16 06:54:14;;;;;;;3.22;0.10;;;20.30;37.20;;;;;;5042845;28;20052;-82
2021/03/16 06:56:39;;;;;;;1.00;0.00;;;20.30;37.20;;;;;;5045241;28;20037;-82
2021/03/16 06:59:19;;;;;;;0.77;0.08;;;20.40;37.20;;;;;;5043893;28;20029;-83
2021/03/16 07:01:44;;;;;;;3.80;0.10;;;20.40;37.10;;;;;;5044608;28;20036;-84
2021/03/16 07:04:18;;;;;;;0.45;0.08;;;20.40;37.10;;;;;;5047234;28;20037;-85
2021/03/16 07:06:44;;;;;;;0.52;0.10;;;20.50;37.10;;;;;;5069681;28;20060;-85
2021/03/16 07:09:11;;;;;;;0.75;0.10;;;20.50;37.10;;;;;;5046857;28;20051;-83
2021/03/16 07:11:39;;;;;;;1.00;0.10;;;20.50;37.00;;;;;;5046114;28;20412;-85
2021/03/16 07:14:06;;;;;;;1.83;0.10;;;20.60;37.00;;;;;;5048080;28;20030;-85
2021/03/16 07:16:33;;;;;;;3.40;0.30;;;20.60;37.00;;;;;;5056985;28;20104;-85
2021/03/16 07:19:03;;;;;;;0.80;0.17;;;20.60;37.00;;;;;;5055394;28;20085;-85
2021/03/16 07:21:40;;;;;;;0.40;0.00;;;20.70;37.00;;;;;;5051922;28;20030;-84
2021/03/16 07:24:09;;;;;;;0.98;0.00;;;20.70;37.00;;;;;;5051372;28;20112;-85
2021/03/16 07:26:36;;;;;;;0.40;0.05;;;20.70;36.90;;;;;;5057405;28;20496;-85
2021/03/16 07:29:06;;;;;;;0.77;0.20;;;20.70;36.90;;;;;;5035573;28;20085;-84
2021/03/16 07:31:38;;;;;;;1.40;0.10;;;20.70;36.90;;;;;;5048545;28;20037;-84
2021/03/16 07:34:09;;;;;;;0.63;0.10;;;20.70;36.90;;;;;;5042799;28;20033;-85
2021/03/16 07:36:37;;;;;;;1.02;0.15;;;20.70;36.90;;;;;;5055831;28;20033;-84
2021/03/16 07:39:05;;;;;;;1.55;0.03;;;20.70;37.00;;;;;;5052170;28;20081;-85
2021/03/16 07:41:32;;;;;;;2.20;0.15;;;20.60;37.00;;;;;;5044924;28;20030;-85
2021/03/16 07:44:07;;;;;;;1.33;0.10;;;20.60;37.00;;;;;;5049453;28;20096;-85
2021/03/16 07:46:47;;;;;;;1.05;0.15;;;20.60;37.10;;;;;;5030147;28;20040;-84
2021/03/16 07:49:31;;;;;;;0.70;0.00;;;20.60;37.10;;;;;;5047070;28;20432;-84
2021/03/16 07:51:58;;;;;;;2.15;0.10;;;20.60;37.10;;;;;;5047284;28;20033;-82
2021/03/16 07:54:32;;;;;;;0.73;0.10;;;20.60;37.20;;;;;;5047276;28;20131;-85
2021/03/16 07:56:59;;;;;;;2.30;0.10;;;20.50;37.20;;;;;;5047137;28;20573;-85
2021/03/16 07:59:35;;;;;;;0.82;0.00;;;20.50;37.20;;;;;;5045664;28;20017;-85
2021/03/16 08:02:01;;;;;;;0.60;0.00;;;20.50;37.20;;;;;;5046533;28;20518;-85
2021/03/16 08:04:41;;;;;;;0.85;0.00;;;20.50;37.30;;;;;;5045926;28;20499;-84
2021/03/16 08:07:12;;;;;;;0.65;0.10;;;20.40;37.20;;;;;;5050577;28;20079;-85
2021/03/16 08:09:49;;;;;;;0.70;0.10;;;20.40;37.30;;;;;;5047928;28;20033;-84
2021/03/16 08:12:29;;;;;;;0.70;0.13;;;20.40;37.30;;;;;;5046591;28;20032;-84
2021/03/16 08:15:08;;;;;;;1.85;0.25;;;20.40;37.40;;;;;;5047518;28;20017;-84
2021/03/16 08:17:35;;;;;;;2.70;0.10;;;20.40;37.40;;;;;;5047995;28;20029;-85
2021/03/16 08:20:02;;;;;;;0.90;0.20;;;20.30;37.50;;;;;;5047740;28;20025;-85
2021/03/16 08:22:28;;;;;;;0.98;0.20;;;20.40;37.50;;;;;;5049395;28;20550;-85
2021/03/16 08:25:07;;;;;;;1.73;0.10;;;20.30;37.50;;;;;;5053415;28;20035;-85
2021/03/16 08:27:34;;;;;;;2.53;0.20;;;20.30;37.50;;;;;;5046938;28;20505;-85
2021/03/16 08:30:03;;;;;;;1.77;0.10;;;20.30;37.50;;;;;;5042850;28;20068;-84
2021/03/16 08:32:29;;;;;;;0.82;0.05;;;20.30;37.50;;;;;;5043430;28;20033;-85
2021/03/16 08:34:57;;;;;;;1.77;0.03;;;20.30;37.50;;;;;;5044045;28;20036;-85
2021/03/16 08:37:26;;;;;;;1.80;0.10;;;20.30;37.60;;;;;;5042371;28;20039;-85
2021/03/16 08:39:52;;;;;;;0.98;0.10;;;20.30;37.60;;;;;;5057834;28;20040;-84
2021/03/16 08:42:20;;;;;;;0.43;0.00;;;20.30;37.60;;;;;;5044352;28;20416;-85
2021/03/16 08:44:46;;;;;;;0.75;0.10;;;20.30;37.70;;;;;;5042292;28;20448;-85
2021/03/16 08:47:14;;;;;;;1.15;0.10;;;20.20;37.70;;;;;;5044093;28;20056;-85
2021/03/16 08:49:41;;;;;;;0.90;0.10;;;20.20;37.70;;;;;;5043295;28;20037;-86
2021/03/16 08:52:18;;;;;;;0.88;0.03;;;20.30;37.70;;;;;;5042119;28;20031;-85
2021/03/16 08:54:43;;;;;;;0.47;0.10;;;20.40;37.60;;;;;;5051346;28;20033;-85
2021/03/16 08:57:09;;;;;;;2.25;0.17;;;20.50;37.40;;;;;;5044233;28;20035;-82
2021/03/16 08:59:37;;;;;;;1.88;0.35;;;20.60;37.30;;;;;;5042616;28;20053;-85
2021/03/16 09:02:02;;;;;;;1.20;0.32;;;20.60;37.20;;;;;;5026136;28;20112;-85
2021/03/16 09:04:28;;;;;;;0.82;0.20;;;20.70;37.20;;;;;;5042775;28;20045;-84
2021/03/16 09:06:54;;;;;;;2.53;0.17;;;20.80;37.30;;;;;;5042951;28;20037;-84
2021/03/16 09:09:27;;;;;;;1.40;0.50;;;20.80;37.40;;;;;;5054728;28;20026;-84
2021/03/16 09:11:56;;;;;;;1.08;0.20;;;20.90;37.40;;;;;;5041705;28;20024;-85
2021/03/16 09:14:22;;;;;;;2.63;0.25;;;20.90;37.40;;;;;;5044347;28;20538;-84
2021/03/16 09:16:53;;;;;;;1.98;0.20;;;21.00;37.40;;;;;;5043220;28;20116;-83
2021/03/16 09:19:22;;;;;;;0.57;0.20;;;21.00;37.40;;;;;;5041791;28;20031;-85
2021/03/16 09:21:52;;;;;;;3.42;0.22;;;21.00;37.40;;;;;;5029250;28;20025;-85
2021/03/16 09:24:29;;;;;;;1.40;0.30;;;21.10;37.40;;;;;;5043107;28;20524;-85
2021/03/16 09:26:59;;;;;;;2.05;0.43;;;21.10;37.40;;;;;;5043710;28;20036;-84
2021/03/16 09:29:29;;;;;;;3.70;0.52;;;21.10;37.40;;;;;;5044090;28;20032;-84
2021/03/16 09:31:55;;;;;;;2.90;0.32;;;21.10;37.40;;;;;;5044800;28;20025;-85
2021/03/16 09:34:21;;;;;;;1.80;0.43;;;21.10;37.40;;;;;;5042269;28;20078;-83
2021/03/16 09:37:02;;;;;;;2.25;0.30;;;21.20;37.40;;;;;;5023810;28;20037;-86
2021/03/16 09:39:29;;;;;;;1.50;0.20;;;21.30;37.40;;;;;;5043743;28;20486;-85
2021/03/16 09:41:56;;;;;;;1.63;0.35;;;21.30;37.40;;;;;;5040329;28;20037;-85
2021/03/16 09:44:43;;;;;;;3.25;0.43;;;21.30;37.30;;;;;;5044736;28;20028;-85
2021/03/16 09:47:09;;;;;;;1.33;0.20;;;21.30;37.40;;;;;;5047668;28;20055;-85
2021/03/16 09:49:40;;;;;;;2.20;0.57;;;21.40;37.50;;;;;;5044122;28;20041;-85
2021/03/16 09:52:11;;;;;;;1.20;0.38;;;21.40;37.50;;;;;;5042377;28;20140;-85
2021/03/16 09:54:42;;;;;;;2.58;0.30;;;21.40;37.50;;;;;;5022446;28;20033;-85
2021/03/16 09:57:16;;;;;;;1.77;0.32;;;21.30;37.50;;;;;;5041423;28;20034;-85
2021/03/16 09:59:43;;;;;;;1.42;0.50;;;21.30;37.60;;;;;;5029799;28;20044;-84
2021/03/16 10:02:11;;;;;;;3.00;0.32;;;21.30;37.60;;;;;;5050190;28;20038;-86
2021/03/16 10:04:43;;;;;;;4.75;0.40;;;21.30;37.70;;;;;;5046739;28;20052;-84
2021/03/16 10:07:09;;;;;;;2.35;0.30;;;21.30;37.70;;;;;;5048791;28;20033;-84
2021/03/16 10:09:41;;;;;;;1.63;0.32;;;21.30;37.70;;;;;;5048126;28;20378;-84
2021/03/16 10:12:18;;;;;;;2.78;0.30;;;21.30;37.70;;;;;;5047807;28;20029;-85
2021/03/16 10:14:47;;;;;;;2.28;0.30;;;21.20;37.70;;;;;;5046017;28;20053;-85
2021/03/16 10:17:26;;;;;;;1.77;0.35;;;21.20;37.70;;;;;;5044243;28;20044;-86
2021/03/16 10:19:53;;;;;;;1.60;0.40;;;21.20;37.80;;;;;;5042804;28;20029;-85
2021/03/16 10:22:19;;;;;;;3.40;0.43;;;21.20;37.80;;;;;;5039473;28;20051;-85
2021/03/16 10:24:54;;;;;;;1.90;0.40;;;21.20;37.80;;;;;;5040944;28;20120;-85
2021/03/16 10:27:31;;;;;;;1.25;0.32;;;21.20;37.80;;;;;;5039914;28;20556;-85
2021/03/16 10:30:00;;;;;;;4.07;0.57;;;21.10;37.90;;;;;;5038489;28;20033;-85
2021/03/16 10:32:26;;;;;;;1.35;0.20;;;21.10;37.90;;;;;;5033307;28;20568;-85
2021/03/16 10:34:51;;;;;;;2.90;0.22;;;21.10;38.00;;;;;;5040468;28;20116;-84
2021/03/16 10:37:22;;;;;;;3.70;0.40;;;21.10;38.00;;;;;;5050216;28;20507;-84
2021/03/16 10:39:48;;;;;;;3.58;0.70;;;21.00;38.00;;;;;;5048900;28;20068;-85
2021/03/16 10:42:14;;;;;;;3.13;0.30;;;21.00;38.10;;;;;;5051595;28;20118;-84
2021/03/16 10:44:40;;;;;;;2.08;0.47;;;21.00;38.10;;;;;;5053329;28;20033;-84
2021/03/16 10:47:06;;;;;;;1.88;0.50;;;21.00;38.10;;;;;;5045786;28;20021;-83
2021/03/16 10:49:32;;;;;;;3.60;0.68;;;21.00;38.10;;;;;;5051650;28;20032;-85
2021/03/16 10:51:59;;;;;;;1.98;0.22;;;21.00;38.20;;;;;;5043475;28;20056;-84
2021/03/16 10:54:24;;;;;;;2.28;0.45;;;21.00;38.20;;;;;;5049348;28;20036;-83
2021/03/16 10:56:51;;;;;;;1.85;0.30;;;21.00;38.20;;;;;;5049036;28;20021;-85
2021/03/16 10:59:20;;;;;;;1.00;0.20;;;20.90;38.20;;;;;;5049296;28;20029;-86
2021/03/16 11:01:46;;;;;;;0.88;0.20;;;20.90;38.20;;;;;;5050692;28;20036;-85
2021/03/16 11:04:12;;;;;;;1.55;0.25;;;20.90;38.20;;;;;;5051236;28;20033;-85
2021/03/16 11:06:38;;;;;;;2.45;0.50;;;20.90;38.20;;;;;;5047709;28;20031;-86
2021/03/16 11:09:04;;;;;;;0.63;0.20;;;20.90;38.20;;;;;;5049787;28;20115;-85
2021/03/16 11:11:29;;;;;;;4.05;0.30;;;20.90;38.30;;;;;;5049141;28;20025;-85
2021/03/16 11:13:55;;;;;;;1.02;0.30;;;20.90;38.40;;;;;;5030557;28;20112;-83
2021/03/16 11:16:20;;;;;;;2.70;0.20;;;20.90;38.50;;;;;;5047733;28;20068;-84
2021/03/16 11:18:46;;;;;;;1.20;0.25;;;20.90;38.60;;;;;;5049383;28;20032;-84
2021/03/16 11:21:12;;;;;;;2.55;0.38;;;20.90;38.70;;;;;;5051055;28;20029;-85
2021/03/16 11:23:37;;;;;;;1.38;0.28;;;20.90;38.90;;;;;;5046518;28;20033;-83
2021/03/16 11:26:03;;;;;;;4.03;0.17;;;20.90;38.80;;;;;;5044960;28;20018;-86
2021/03/16 11:28:29;;;;;;;1.33;0.20;;;20.80;38.80;;;;;;5052409;28;20021;-85
2021/03/16 11:30:54;;;;;;;2.50;0.30;;;20.80;38.90;;;;;;5049611;28;20120;-84
2021/03/16 11:33:20;;;;;;;0.35;0.13;;;20.80;38.90;;;;;;5047036;28;20029;-85
2021/03/16 11:35:45;;;;;;;1.40;0.20;;;20.80;39.00;;;;;;5045654;28;20022;-86
2021/03/16 11:38:11;;;;;;;3.22;0.30;;;20.80;39.10;;;;;;5043799;28;20732;-85
2021/03/16 11:40:37;;;;;;;3.30;0.10;;;20.80;39.10;;;;;;5046521;28;20048;-85
2021/03/16 11:43:02;;;;;;;1.83;0.20;;;20.80;39.00;;;;;;5043887;28;20501;-86
2021/03/16 11:45:28;;;;;;;1.73;0.20;;;20.80;38.70;;;;;;5046797;28;20421;-85
2021/03/16 11:47:53;;;;;;;2.55;0.30;;;20.90;38.50;;;;;;5039495;28;20218;-85
2021/03/16 11:50:19;;;;;;;0.65;0.10;;;21.00;38.40;;;;;;5045959;28;20025;-85
2021/03/16 11:52:44;;;;;;;1.30;0.20;;;21.10;38.30;;;;;;5045351;28;20025;-85
2021/03/16 11:55:11;;;;;;;1.52;0.17;;;21.20;38.10;;;;;;5041223;28;20028;-85
2021/03/16 11:57:37;;;;;;;0.95;0.17;;;21.30;38.00;;;;;;5042532;28;20025;-86
2021/03/16 12:00:07;;;;;;;1.13;0.35;;;21.40;37.90;;;;;;5042460;28;20022;-84
2021/03/16 12:02:33;;;;;;;1.02;0.20;;;21.40;37.80;;;;;;5045138;28;20555;-85
2021/03/16 12:04:59;;;;;;;0.57;0.17;;;21.50;37.80;;;;;;5028436;28;20144;-85
2021/03/16 12:07:26;;;;;;;1.13;0.30;;;21.60;37.80;;;;;;5044162;28;20033;-85
2021/03/16 12:09:51;;;;;;;1.42;0.25;;;21.60;37.70;;;;;;5068432;28;20030;-85
2021/03/16 12:12:17;;;;;;;0.70;0.10;;;21.60;37.70;;;;;;5024812;28;20535;-84
2021/03/16 12:14:43;;;;;;;0.98;0.22;;;21.60;37.60;;;;;;5028617;28;20029;-85
2021/03/16 12:17:11;;;;;;;0.77;0.20;;;21.60;37.60;;;;;;5044479;28;20090;-85
2021/03/16 12:19:37;;;;;;;0.80;0.22;;;21.70;37.70;;;;;;5048063;28;20029;-83
2021/03/16 12:22:03;;;;;;;2.95;0.30;;;21.70;37.70;;;;;;5052337;28;20061;-86
2021/03/16 12:24:28;;;;;;;0.90;0.30;;;21.60;37.70;;;;;;5045239;28;20033;-85
2021/03/16 12:26:54;;;;;;;2.30;0.30;;;21.60;37.80;;;;;;5046174;28;20037;-84
2021/03/16 12:29:19;;;;;;;0.40;0.15;;;21.60;37.80;;;;;;5045848;28;20033;-85
2021/03/16 12:31:45;;;;;;;1.15;0.30;;;21.60;37.90;;;;;;5049813;28;20040;-85
2021/03/16 12:34:10;;;;;;;1.02;0.40;;;21.50;37.90;;;;;;5043873;28;20481;-85
2021/03/16 12:36:36;;;;;;;2.20;0.30;;;21.60;38.50;;;;;;5043794;28;20108;-85
2021/03/16 12:39:02;;;;;;;3.33;0.30;;;21.50;38.00;;;;;;5044568;28;20079;-85
2021/03/16 12:41:28;;;;;;;1.00;0.40;;;21.50;38.00;;;;;;5042395;28;20044;-86
2021/03/16 12:43:53;;;;;;;1.65;0.40;;;21.50;38.10;;;;;;5043410;28;20497;-85
2021/03/16 12:46:19;;;;;;;0.80;0.30;;;21.40;38.00;;;;;;5040783;28;20026;-85
2021/03/16 12:48:45;;;;;;;1.42;0.30;;;21.50;38.20;;;;;;5043326;28;20060;-85
2021/03/16 12:51:10;;;;;;;1.30;0.22;;;21.50;38.20;;;;;;5042711;28;20552;-85